sensor_id;sensor_type;location;lat;lon;timestamp;P1;durP1;ratioP1;P2;durP2;ratioP2
23228;SDS011;11783;50.350;6.576;2023-11-21T00:00:42;5.60;;;2.75;;
23228;SDS011;11783;50.350;6.576;2023-11-21T00:03:07;4.70;;;2.10;;
23228;SDS011;11783;50.350;6.576;2023-11-21T00:05:33;6.18;;;1.70;;
23228;SDS011;11783;50.350;6.576;2023-11-21T00:07:58;2.88;;;1.30;;
23228;SDS011;11783;50.350;6.576;2023-11-21T00:10:24;3.75;;;1.23;;
23228;SDS011;11783;50.350;6.576;2023-11-21T00:12:49;2.72;;;1.10;;
23228;SDS011;11783;50.350;6.576;2023-11-21T00:15:14;3.63;;;0.95;;
23228;SDS011;11783;50.350;6.576;2023-11-21T00:17:40;1.33;;;0.70;;
23228;SDS011;11783;50.350;6.576;2023-11-21T00:20:06;3.88;;;0.68;;
23228;SDS011;11783;50.350;6.576;2023-11-21T00:22:35;1.55;;;0.55;;
23228;SDS011;11783;50.350;6.576;2023-11-21T00:25:01;1.00;;;0.47;;
23228;SDS011;11783;50.350;6.576;2023-11-21T00:27:28;4.97;;;0.40;;
23228;SDS011;11783;50.350;6.576;2023-11-21T00:29:54;0.50;;;0.40;;
23228;SDS011;11783;50.350;6.576;2023-11-21T00:32:19;0.55;;;0.35;;
23228;SDS011;11783;50.350;6.576;2023-11-21T00:34:45;0.40;;;0.30;;
23228;SDS011;11783;50.350;6.576;2023-11-21T00:37:10;2.83;;;0.45;;
23228;SDS011;11783;50.350;6.576;2023-11-21T00:39:35;0.82;;;0.40;;
23228;SDS011;11783;50.350;6.576;2023-11-21T00:42:01;1.10;;;0.30;;
23228;SDS011;11783;50.350;6.576;2023-11-21T00:44:26;1.48;;;0.50;;
23228;SDS011;11783;50.350;6.576;2023-11-21T00:46:51;1.00;;;0.40;;
23228;SDS011;11783;50.350;6.576;2023-11-21T00:49:17;1.40;;;0.40;;
23228;SDS011;11783;50.350;6.576;2023-11-21T00:51:42;2.20;;;0.47;;
23228;SDS011;11783;50.350;6.576;2023-11-21T00:54:07;1.02;;;0.43;;
23228;SDS011;11783;50.350;6.576;2023-11-21T00:56:33;1.95;;;0.40;;
23228;SDS011;11783;50.350;6.576;2023-11-21T00:58:59;2.72;;;0.60;;
23228;SDS011;11783;50.350;6.576;2023-11-21T01:01:24;5.93;;;0.60;;
23228;SDS011;11783;50.350;6.576;2023-11-21T01:03:50;2.15;;;0.60;;
23228;SDS011;11783;50.350;6.576;2023-11-21T01:06:18;1.60;;;0.70;;
23228;SDS011;11783;50.350;6.576;2023-11-21T01:08:44;2.35;;;0.90;;
23228;SDS011;11783;50.350;6.576;2023-11-21T01:11:10;2.78;;;0.85;;
23228;SDS011;11783;50.350;6.576;2023-11-21T01:13:37;5.25;;;1.10;;
23228;SDS011;11783;50.350;6.576;2023-11-21T01:16:04;3.45;;;1.58;;
23228;SDS011;11783;50.350;6.576;2023-11-21T01:18:31;3.55;;;1.38;;
23228;SDS011;11783;50.350;6.576;2023-11-21T01:20:56;3.47;;;1.65;;
23228;SDS011;11783;50.350;6.576;2023-11-21T01:23:22;5.80;;;1.88;;
23228;SDS011;11783;50.350;6.576;2023-11-21T01:25:47;4.20;;;1.92;;
23228;SDS011;11783;50.350;6.576;2023-11-21T01:28:13;3.67;;;1.90;;
23228;SDS011;11783;50.350;6.576;2023-11-21T01:30:38;5.70;;;2.28;;
23228;SDS011;11783;50.350;6.576;2023-11-21T01:33:04;4.50;;;2.08;;
23228;SDS011;11783;50.350;6.576;2023-11-21T01:35:29;5.60;;;2.55;;
23228;SDS011;11783;50.350;6.576;2023-11-21T01:37:55;4.82;;;2.10;;
23228;SDS011;11783;50.350;6.576;2023-11-21T01:40:20;6.03;;;2.20;;
23228;SDS011;11783;50.350;6.576;2023-11-21T01:42:46;5.53;;;2.10;;
23228;SDS011;11783;50.350;6.576;2023-11-21T01:45:12;7.95;;;2.60;;
23228;SDS011;11783;50.350;6.576;2023-11-21T01:47:38;6.97;;;2.53;;
23228;SDS011;11783;50.350;6.576;2023-11-21T01:50:06;4.35;;;2.40;;
23228;SDS011;11783;50.350;6.576;2023-11-21T01:52:38;5.20;;;2.28;;
23228;SDS011;11783;50.350;6.576;2023-11-21T01:55:04;5.10;;;2.70;;
23228;SDS011;11783;50.350;6.576;2023-11-21T01:57:33;4.15;;;2.28;;
23228;SDS011;11783;50.350;6.576;2023-11-21T01:59:58;5.53;;;2.40;;
23228;SDS011;11783;50.350;6.576;2023-11-21T02:02:36;4.97;;;2.35;;
23228;SDS011;11783;50.350;6.576;2023-11-21T02:05:01;7.00;;;2.67;;
23228;SDS011;11783;50.350;6.576;2023-11-21T02:07:27;5.55;;;2.10;;
23228;SDS011;11783;50.350;6.576;2023-11-21T02:09:52;5.30;;;2.30;;
23228;SDS011;11783;50.350;6.576;2023-11-21T02:12:17;4.28;;;1.80;;
23228;SDS011;11783;50.350;6.576;2023-11-21T02:14:42;4.35;;;2.20;;
23228;SDS011;11783;50.350;6.576;2023-11-21T02:17:09;3.10;;;1.50;;
23228;SDS011;11783;50.350;6.576;2023-11-21T02:19:35;4.85;;;2.33;;
23228;SDS011;11783;50.350;6.576;2023-11-21T02:22:00;4.30;;;2.10;;
23228;SDS011;11783;50.350;6.576;2023-11-21T02:24:28;3.45;;;1.85;;
23228;SDS011;11783;50.350;6.576;2023-11-21T02:26:53;5.88;;;2.20;;
23228;SDS011;11783;50.350;6.576;2023-11-21T02:29:20;5.20;;;2.15;;
23228;SDS011;11783;50.350;6.576;2023-11-21T02:31:53;4.88;;;2.08;;
23228;SDS011;11783;50.350;6.576;2023-11-21T02:34:20;3.72;;;2.38;;
23228;SDS011;11783;50.350;6.576;2023-11-21T02:36:45;6.35;;;2.45;;
23228;SDS011;11783;50.350;6.576;2023-11-21T02:39:12;5.32;;;2.40;;
23228;SDS011;11783;50.350;6.576;2023-11-21T02:41:38;7.30;;;2.70;;
23228;SDS011;11783;50.350;6.576;2023-11-21T02:44:04;6.72;;;2.72;;
23228;SDS011;11783;50.350;6.576;2023-11-21T02:46:31;4.95;;;2.58;;
23228;SDS011;11783;50.350;6.576;2023-11-21T02:48:58;5.07;;;2.70;;
23228;SDS011;11783;50.350;6.576;2023-11-21T02:51:24;5.93;;;3.20;;
23228;SDS011;11783;50.350;6.576;2023-11-21T02:53:50;5.53;;;2.72;;
23228;SDS011;11783;50.350;6.576;2023-11-21T02:56:16;6.80;;;2.42;;
23228;SDS011;11783;50.350;6.576;2023-11-21T02:58:42;4.65;;;2.42;;
23228;SDS011;11783;50.350;6.576;2023-11-21T03:01:11;6.20;;;2.50;;
23228;SDS011;11783;50.350;6.576;2023-11-21T03:03:38;5.22;;;2.47;;
23228;SDS011;11783;50.350;6.576;2023-11-21T03:06:08;5.75;;;2.15;;
23228;SDS011;11783;50.350;6.576;2023-11-21T03:08:33;4.75;;;1.90;;
23228;SDS011;11783;50.350;6.576;2023-11-21T03:10:59;5.25;;;2.05;;
23228;SDS011;11783;50.350;6.576;2023-11-21T03:13:24;5.07;;;2.08;;
23228;SDS011;11783;50.350;6.576;2023-11-21T03:15:49;4.60;;;2.30;;
23228;SDS011;11783;50.350;6.576;2023-11-21T03:18:15;4.75;;;2.08;;
23228;SDS011;11783;50.350;6.576;2023-11-21T03:20:40;4.38;;;2.15;;
23228;SDS011;11783;50.350;6.576;2023-11-21T03:23:06;3.67;;;1.80;;
23228;SDS011;11783;50.350;6.576;2023-11-21T03:25:32;7.30;;;2.58;;
23228;SDS011;11783;50.350;6.576;2023-11-21T03:27:57;4.60;;;2.20;;
23228;SDS011;11783;50.350;6.576;2023-11-21T03:30:23;3.80;;;1.80;;
23228;SDS011;11783;50.350;6.576;2023-11-21T03:32:48;3.75;;;2.00;;
23228;SDS011;11783;50.350;6.576;2023-11-21T03:35:13;4.03;;;2.20;;
23228;SDS011;11783;50.350;6.576;2023-11-21T03:37:39;6.13;;;2.35;;
23228;SDS011;11783;50.350;6.576;2023-11-21T03:40:07;4.85;;;2.10;;
23228;SDS011;11783;50.350;6.576;2023-11-21T03:42:37;8.27;;;2.30;;
23228;SDS011;11783;50.350;6.576;2023-11-21T03:45:03;4.88;;;2.03;;
23228;SDS011;11783;50.350;6.576;2023-11-21T03:47:29;4.10;;;2.17;;
23228;SDS011;11783;50.350;6.576;2023-11-21T03:49:54;5.38;;;2.53;;
23228;SDS011;11783;50.350;6.576;2023-11-21T03:52:19;7.45;;;3.00;;
23228;SDS011;11783;50.350;6.576;2023-11-21T03:54:45;5.95;;;2.97;;
23228;SDS011;11783;50.350;6.576;2023-11-21T03:57:12;8.05;;;3.05;;
23228;SDS011;11783;50.350;6.576;2023-11-21T03:59:40;6.93;;;3.00;;
23228;SDS011;11783;50.350;6.576;2023-11-21T04:02:06;5.57;;;2.50;;
23228;SDS011;11783;50.350;6.576;2023-11-21T04:04:32;6.35;;;3.03;;
23228;SDS011;11783;50.350;6.576;2023-11-21T04:06:58;6.45;;;2.75;;
23228;SDS011;11783;50.350;6.576;2023-11-21T04:09:24;6.18;;;2.75;;
23228;SDS011;11783;50.350;6.576;2023-11-21T04:11:50;6.38;;;2.90;;
23228;SDS011;11783;50.350;6.576;2023-11-21T04:14:18;5.82;;;3.15;;
23228;SDS011;11783;50.350;6.576;2023-11-21T04:16:44;5.30;;;2.78;;
23228;SDS011;11783;50.350;6.576;2023-11-21T04:19:09;6.85;;;2.97;;
23228;SDS011;11783;50.350;6.576;2023-11-21T04:21:35;6.43;;;3.05;;
23228;SDS011;11783;50.350;6.576;2023-11-21T04:24:01;6.25;;;3.03;;
23228;SDS011;11783;50.350;6.576;2023-11-21T04:26:27;10.75;;;2.80;;
23228;SDS011;11783;50.350;6.576;2023-11-21T04:28:52;7.03;;;3.30;;
23228;SDS011;11783;50.350;6.576;2023-11-21T04:31:17;6.22;;;2.65;;
23228;SDS011;11783;50.350;6.576;2023-11-21T04:33:43;6.97;;;3.20;;
23228;SDS011;11783;50.350;6.576;2023-11-21T04:36:09;5.57;;;2.90;;
23228;SDS011;11783;50.350;6.576;2023-11-21T04:38:35;10.32;;;3.25;;
23228;SDS011;11783;50.350;6.576;2023-11-21T04:41:01;5.65;;;2.60;;
23228;SDS011;11783;50.350;6.576;2023-11-21T04:43:26;8.13;;;3.45;;
23228;SDS011;11783;50.350;6.576;2023-11-21T04:45:52;6.45;;;3.13;;
23228;SDS011;11783;50.350;6.576;2023-11-21T04:48:17;9.57;;;3.10;;
23228;SDS011;11783;50.350;6.576;2023-11-21T04:50:42;6.88;;;2.80;;
23228;SDS011;11783;50.350;6.576;2023-11-21T04:53:08;7.93;;;3.40;;
23228;SDS011;11783;50.350;6.576;2023-11-21T04:55:33;7.40;;;2.97;;
23228;SDS011;11783;50.350;6.576;2023-11-21T04:57:58;11.45;;;3.15;;
23228;SDS011;11783;50.350;6.576;2023-11-21T05:00:24;7.90;;;3.95;;
23228;SDS011;11783;50.350;6.576;2023-11-21T05:02:49;11.35;;;3.88;;
23228;SDS011;11783;50.350;6.576;2023-11-21T05:05:15;9.90;;;3.55;;
23228;SDS011;11783;50.350;6.576;2023-11-21T05:07:40;7.10;;;3.35;;
23228;SDS011;11783;50.350;6.576;2023-11-21T05:10:06;7.75;;;3.75;;
23228;SDS011;11783;50.350;6.576;2023-11-21T05:12:35;5.95;;;3.33;;
23228;SDS011;11783;50.350;6.576;2023-11-21T05:15:04;8.25;;;4.07;;
23228;SDS011;11783;50.350;6.576;2023-11-21T05:17:33;8.85;;;3.42;;
23228;SDS011;11783;50.350;6.576;2023-11-21T05:19:59;8.40;;;3.80;;
23228;SDS011;11783;50.350;6.576;2023-11-21T05:22:28;7.80;;;3.83;;
23228;SDS011;11783;50.350;6.576;2023-11-21T05:24:54;7.85;;;3.72;;
23228;SDS011;11783;50.350;6.576;2023-11-21T05:27:19;9.65;;;3.55;;
23228;SDS011;11783;50.350;6.576;2023-11-21T05:29:44;8.23;;;3.15;;
23228;SDS011;11783;50.350;6.576;2023-11-21T05:32:10;7.53;;;3.60;;
23228;SDS011;11783;50.350;6.576;2023-11-21T05:34:35;8.18;;;3.15;;
23228;SDS011;11783;50.350;6.576;2023-11-21T05:37:00;7.18;;;3.78;;
23228;SDS011;11783;50.350;6.576;2023-11-21T05:39:26;6.53;;;2.92;;
23228;SDS011;11783;50.350;6.576;2023-11-21T05:41:52;11.05;;;3.60;;
23228;SDS011;11783;50.350;6.576;2023-11-21T05:44:18;8.52;;;3.83;;
23228;SDS011;11783;50.350;6.576;2023-11-21T05:46:44;9.32;;;3.53;;
23228;SDS011;11783;50.350;6.576;2023-11-21T05:49:09;6.75;;;3.15;;
23228;SDS011;11783;50.350;6.576;2023-11-21T05:51:34;8.25;;;3.42;;
23228;SDS011;11783;50.350;6.576;2023-11-21T05:54:00;10.20;;;3.40;;
23228;SDS011;11783;50.350;6.576;2023-11-21T05:56:25;8.05;;;3.38;;
23228;SDS011;11783;50.350;6.576;2023-11-21T05:58:50;8.63;;;3.42;;
23228;SDS011;11783;50.350;6.576;2023-11-21T06:01:16;12.82;;;3.95;;
23228;SDS011;11783;50.350;6.576;2023-11-21T06:03:41;8.65;;;3.38;;
23228;SDS011;11783;50.350;6.576;2023-11-21T06:06:08;9.05;;;3.30;;
23228;SDS011;11783;50.350;6.576;2023-11-21T06:08:33;6.35;;;3.20;;
23228;SDS011;11783;50.350;6.576;2023-11-21T06:10:59;9.10;;;4.20;;
23228;SDS011;11783;50.350;6.576;2023-11-21T06:13:24;9.00;;;3.55;;
23228;SDS011;11783;50.350;6.576;2023-11-21T06:15:52;7.72;;;3.65;;
23228;SDS011;11783;50.350;6.576;2023-11-21T06:18:18;10.23;;;3.72;;
23228;SDS011;11783;50.350;6.576;2023-11-21T06:20:45;6.32;;;3.20;;
23228;SDS011;11783;50.350;6.576;2023-11-21T06:23:11;7.70;;;3.47;;
23228;SDS011;11783;50.350;6.576;2023-11-21T06:25:36;8.35;;;3.75;;
23228;SDS011;11783;50.350;6.576;2023-11-21T06:28:02;10.05;;;3.63;;
23228;SDS011;11783;50.350;6.576;2023-11-21T06:30:27;9.38;;;3.10;;
23228;SDS011;11783;50.350;6.576;2023-11-21T06:32:54;8.77;;;3.30;;
23228;SDS011;11783;50.350;6.576;2023-11-21T06:35:20;9.30;;;3.33;;
23228;SDS011;11783;50.350;6.576;2023-11-21T06:37:45;9.75;;;4.10;;
23228;SDS011;11783;50.350;6.576;2023-11-21T06:40:12;7.68;;;3.58;;
23228;SDS011;11783;50.350;6.576;2023-11-21T06:42:40;7.93;;;3.65;;
23228;SDS011;11783;50.350;6.576;2023-11-21T06:45:06;8.00;;;3.53;;
23228;SDS011;11783;50.350;6.576;2023-11-21T06:47:32;8.32;;;3.45;;
23228;SDS011;11783;50.350;6.576;2023-11-21T06:49:58;7.97;;;3.30;;
23228;SDS011;11783;50.350;6.576;2023-11-21T06:52:24;10.30;;;3.58;;
23228;SDS011;11783;50.350;6.576;2023-11-21T06:54:49;6.65;;;3.80;;
23228;SDS011;11783;50.350;6.576;2023-11-21T06:57:15;7.85;;;3.47;;
23228;SDS011;11783;50.350;6.576;2023-11-21T06:59:40;8.65;;;3.47;;
23228;SDS011;11783;50.350;6.576;2023-11-21T07:02:06;8.48;;;3.78;;
23228;SDS011;11783;50.350;6.576;2023-11-21T07:04:32;9.55;;;4.32;;
23228;SDS011;11783;50.350;6.576;2023-11-21T07:06:58;8.48;;;4.13;;
23228;SDS011;11783;50.350;6.576;2023-11-21T07:09:23;16.35;;;4.22;;
23228;SDS011;11783;50.350;6.576;2023-11-21T07:11:50;10.05;;;3.80;;
23228;SDS011;11783;50.350;6.576;2023-11-21T07:14:19;12.07;;;3.70;;
23228;SDS011;11783;50.350;6.576;2023-11-21T07:16:45;9.73;;;3.90;;
23228;SDS011;11783;50.350;6.576;2023-11-21T07:19:11;11.43;;;4.88;;
23228;SDS011;11783;50.350;6.576;2023-11-21T07:21:37;8.75;;;4.60;;
23228;SDS011;11783;50.350;6.576;2023-11-21T07:24:04;10.90;;;4.43;;
23228;SDS011;11783;50.350;6.576;2023-11-21T07:26:31;13.27;;;5.25;;
23228;SDS011;11783;50.350;6.576;2023-11-21T07:28:57;11.55;;;4.80;;
23228;SDS011;11783;50.350;6.576;2023-11-21T07:31:22;11.65;;;5.28;;
23228;SDS011;11783;50.350;6.576;2023-11-21T07:33:49;13.63;;;5.32;;
23228;SDS011;11783;50.350;6.576;2023-11-21T07:36:15;12.57;;;5.93;;
23228;SDS011;11783;50.350;6.576;2023-11-21T07:38:43;11.18;;;5.85;;
23228;SDS011;11783;50.350;6.576;2023-11-21T07:41:09;11.18;;;5.90;;
23228;SDS011;11783;50.350;6.576;2023-11-21T07:43:35;14.25;;;5.90;;
23228;SDS011;11783;50.350;6.576;2023-11-21T07:46:01;10.93;;;4.90;;
23228;SDS011;11783;50.350;6.576;2023-11-21T07:48:28;15.30;;;6.80;;
23228;SDS011;11783;50.350;6.576;2023-11-21T07:50:54;14.75;;;6.38;;
23228;SDS011;11783;50.350;6.576;2023-11-21T07:53:19;11.98;;;5.97;;
23228;SDS011;11783;50.350;6.576;2023-11-21T07:55:45;14.77;;;6.18;;
23228;SDS011;11783;50.350;6.576;2023-11-21T07:58:12;14.85;;;6.10;;
23228;SDS011;11783;50.350;6.576;2023-11-21T08:00:37;15.35;;;6.07;;
23228;SDS011;11783;50.350;6.576;2023-11-21T08:03:04;15.18;;;6.32;;
23228;SDS011;11783;50.350;6.576;2023-11-21T08:05:30;13.40;;;6.05;;
23228;SDS011;11783;50.350;6.576;2023-11-21T08:07:56;13.70;;;6.70;;
23228;SDS011;11783;50.350;6.576;2023-11-21T08:10:21;16.55;;;6.72;;
23228;SDS011;11783;50.350;6.576;2023-11-21T08:12:47;16.27;;;6.55;;
23228;SDS011;11783;50.350;6.576;2023-11-21T08:15:13;16.65;;;7.43;;
23228;SDS011;11783;50.350;6.576;2023-11-21T08:17:39;16.55;;;7.55;;
23228;SDS011;11783;50.350;6.576;2023-11-21T08:20:05;19.25;;;8.07;;
23228;SDS011;11783;50.350;6.576;2023-11-21T08:22:31;15.88;;;7.28;;
23228;SDS011;11783;50.350;6.576;2023-11-21T08:24:57;19.40;;;7.93;;
23228;SDS011;11783;50.350;6.576;2023-11-21T08:27:22;22.52;;;8.82;;
23228;SDS011;11783;50.350;6.576;2023-11-21T08:29:48;18.60;;;8.48;;
23228;SDS011;11783;50.350;6.576;2023-11-21T08:32:13;19.73;;;9.43;;
23228;SDS011;11783;50.350;6.576;2023-11-21T08:34:40;19.85;;;9.38;;
23228;SDS011;11783;50.350;6.576;2023-11-21T08:37:08;22.85;;;9.80;;
23228;SDS011;11783;50.350;6.576;2023-11-21T08:39:33;18.48;;;8.82;;
23228;SDS011;11783;50.350;6.576;2023-11-21T08:41:58;22.33;;;9.20;;
23228;SDS011;11783;50.350;6.576;2023-11-21T08:44:24;21.98;;;8.73;;
23228;SDS011;11783;50.350;6.576;2023-11-21T08:46:50;19.15;;;7.57;;
23228;SDS011;11783;50.350;6.576;2023-11-21T08:49:15;19.35;;;8.40;;
23228;SDS011;11783;50.350;6.576;2023-11-21T08:51:40;20.15;;;8.35;;
23228;SDS011;11783;50.350;6.576;2023-11-21T08:54:06;19.85;;;8.93;;
23228;SDS011;11783;50.350;6.576;2023-11-21T08:56:36;20.58;;;8.15;;
23228;SDS011;11783;50.350;6.576;2023-11-21T08:59:01;19.85;;;8.70;;
23228;SDS011;11783;50.350;6.576;2023-11-21T09:01:29;23.85;;;8.27;;
23228;SDS011;11783;50.350;6.576;2023-11-21T09:03:57;21.52;;;8.32;;
23228;SDS011;11783;50.350;6.576;2023-11-21T09:06:23;20.55;;;9.00;;
23228;SDS011;11783;50.350;6.576;2023-11-21T09:08:49;22.67;;;9.15;;
23228;SDS011;11783;50.350;6.576;2023-11-21T09:11:14;19.15;;;8.38;;
23228;SDS011;11783;50.350;6.576;2023-11-21T09:13:40;19.23;;;7.95;;
23228;SDS011;11783;50.350;6.576;2023-11-21T09:16:05;19.42;;;9.45;;
23228;SDS011;11783;50.350;6.576;2023-11-21T09:18:31;18.75;;;8.60;;
23228;SDS011;11783;50.350;6.576;2023-11-21T09:20:56;19.05;;;8.93;;
23228;SDS011;11783;50.350;6.576;2023-11-21T09:23:22;16.90;;;8.10;;
23228;SDS011;11783;50.350;6.576;2023-11-21T09:25:47;15.75;;;7.85;;
23228;SDS011;11783;50.350;6.576;2023-11-21T09:28:15;18.48;;;7.30;;
23228;SDS011;11783;50.350;6.576;2023-11-21T09:30:40;16.77;;;7.72;;
23228;SDS011;11783;50.350;6.576;2023-11-21T09:33:06;18.38;;;7.57;;
23228;SDS011;11783;50.350;6.576;2023-11-21T09:35:31;16.20;;;7.45;;
23228;SDS011;11783;50.350;6.576;2023-11-21T09:37:57;15.48;;;7.00;;
23228;SDS011;11783;50.350;6.576;2023-11-21T09:40:22;15.70;;;7.88;;
23228;SDS011;11783;50.350;6.576;2023-11-21T09:42:49;13.68;;;6.78;;
23228;SDS011;11783;50.350;6.576;2023-11-21T09:45:21;15.55;;;7.38;;
23228;SDS011;11783;50.350;6.576;2023-11-21T09:47:52;17.30;;;7.05;;
23228;SDS011;11783;50.350;6.576;2023-11-21T09:50:19;16.20;;;6.85;;
23228;SDS011;11783;50.350;6.576;2023-11-21T09:55:31;16.17;;;6.97;;
23228;SDS011;11783;50.350;6.576;2023-11-21T09:58:01;16.83;;;6.57;;
23228;SDS011;11783;50.350;6.576;2023-11-21T10:00:27;10.73;;;5.65;;
23228;SDS011;11783;50.350;6.576;2023-11-21T10:02:57;12.90;;;5.70;;
23228;SDS011;11783;50.350;6.576;2023-11-21T10:05:23;13.55;;;5.97;;
23228;SDS011;11783;50.350;6.576;2023-11-21T10:07:49;14.02;;;5.65;;
23228;SDS011;11783;50.350;6.576;2023-11-21T10:10:18;16.98;;;6.63;;
23228;SDS011;11783;50.350;6.576;2023-11-21T10:12:47;7.65;;;3.95;;
23228;SDS011;11783;50.350;6.576;2023-11-21T10:15:16;11.75;;;5.80;;
23228;SDS011;11783;50.350;6.576;2023-11-21T10:17:42;12.48;;;6.55;;
23228;SDS011;11783;50.350;6.576;2023-11-21T10:20:11;14.00;;;6.18;;
23228;SDS011;11783;50.350;6.576;2023-11-21T10:22:38;13.32;;;5.53;;
23228;SDS011;11783;50.350;6.576;2023-11-21T10:25:06;11.38;;;4.97;;
23228;SDS011;11783;50.350;6.576;2023-11-21T10:27:33;12.77;;;5.10;;
23228;SDS011;11783;50.350;6.576;2023-11-21T10:30:02;12.05;;;5.18;;
23228;SDS011;11783;50.350;6.576;2023-11-21T10:32:29;14.52;;;5.97;;
23228;SDS011;11783;50.350;6.576;2023-11-21T10:34:57;11.98;;;5.22;;
23228;SDS011;11783;50.350;6.576;2023-11-21T10:37:25;9.73;;;4.78;;
23228;SDS011;11783;50.350;6.576;2023-11-21T10:39:56;12.35;;;4.47;;
23228;SDS011;11783;50.350;6.576;2023-11-21T10:42:23;12.52;;;4.72;;
23228;SDS011;11783;50.350;6.576;2023-11-21T10:44:49;10.32;;;4.55;;
23228;SDS011;11783;50.350;6.576;2023-11-21T10:47:15;9.50;;;4.60;;
23228;SDS011;11783;50.350;6.576;2023-11-21T10:49:44;10.48;;;4.55;;
23228;SDS011;11783;50.350;6.576;2023-11-21T10:52:10;9.18;;;4.93;;
23228;SDS011;11783;50.350;6.576;2023-11-21T10:54:42;8.05;;;3.80;;
23228;SDS011;11783;50.350;6.576;2023-11-21T10:57:08;9.98;;;4.43;;
23228;SDS011;11783;50.350;6.576;2023-11-21T10:59:35;10.90;;;4.68;;
23228;SDS011;11783;50.350;6.576;2023-11-21T11:02:01;8.18;;;4.00;;
23228;SDS011;11783;50.350;6.576;2023-11-21T11:04:41;9.10;;;3.70;;
23228;SDS011;11783;50.350;6.576;2023-11-21T11:07:08;11.27;;;4.38;;
23228;SDS011;11783;50.350;6.576;2023-11-21T11:09:36;8.05;;;3.17;;
23228;SDS011;11783;50.350;6.576;2023-11-21T11:12:04;9.82;;;4.22;;
23228;SDS011;11783;50.350;6.576;2023-11-21T11:14:31;7.95;;;3.70;;
23228;SDS011;11783;50.350;6.576;2023-11-21T11:16:57;8.73;;;3.25;;
23228;SDS011;11783;50.350;6.576;2023-11-21T11:19:25;9.82;;;3.47;;
23228;SDS011;11783;50.350;6.576;2023-11-21T11:22:00;8.02;;;3.83;;
23228;SDS011;11783;50.350;6.576;2023-11-21T11:33:04;11.40;;;3.28;;
23228;SDS011;11783;50.350;6.576;2023-11-21T11:36:04;9.10;;;3.20;;
23228;SDS011;11783;50.350;6.576;2023-11-21T11:38:31;5.75;;;2.72;;
23228;SDS011;11783;50.350;6.576;2023-11-21T11:41:06;7.85;;;3.22;;
23228;SDS011;11783;50.350;6.576;2023-11-21T11:43:32;4.82;;;2.45;;
23228;SDS011;11783;50.350;6.576;2023-11-21T11:45:59;8.80;;;2.85;;
23228;SDS011;11783;50.350;6.576;2023-11-21T11:48:28;6.28;;;2.67;;
23228;SDS011;11783;50.350;6.576;2023-11-21T11:53:36;10.13;;;2.83;;
23228;SDS011;11783;50.350;6.576;2023-11-21T11:58:49;8.95;;;2.65;;
23228;SDS011;11783;50.350;6.576;2023-11-21T12:01:19;6.88;;;2.78;;
23228;SDS011;11783;50.350;6.576;2023-11-21T12:03:44;8.63;;;2.45;;
23228;SDS011;11783;50.350;6.576;2023-11-21T12:06:33;9.20;;;2.38;;
23228;SDS011;11783;50.350;6.576;2023-11-21T12:09:01;9.85;;;2.85;;
23228;SDS011;11783;50.350;6.576;2023-11-21T12:11:30;7.63;;;2.55;;
23228;SDS011;11783;50.350;6.576;2023-11-21T12:13:56;7.88;;;2.40;;
23228;SDS011;11783;50.350;6.576;2023-11-21T12:16:24;8.07;;;2.55;;
23228;SDS011;11783;50.350;6.576;2023-11-21T12:18:52;6.75;;;2.67;;
23228;SDS011;11783;50.350;6.576;2023-11-21T12:21:18;7.43;;;2.47;;
23228;SDS011;11783;50.350;6.576;2023-11-21T12:23:44;9.95;;;2.35;;
23228;SDS011;11783;50.350;6.576;2023-11-21T12:26:11;6.05;;;2.70;;
23228;SDS011;11783;50.350;6.576;2023-11-21T12:28:37;10.27;;;2.58;;
23228;SDS011;11783;50.350;6.576;2023-11-21T12:31:03;7.75;;;2.20;;
23228;SDS011;11783;50.350;6.576;2023-11-21T12:33:31;5.88;;;2.10;;
23228;SDS011;11783;50.350;6.576;2023-11-21T12:35:58;7.45;;;2.65;;
23228;SDS011;11783;50.350;6.576;2023-11-21T12:38:23;9.45;;;2.83;;
23228;SDS011;11783;50.350;6.576;2023-11-21T12:40:49;7.68;;;2.53;;
23228;SDS011;11783;50.350;6.576;2023-11-21T12:43:15;5.05;;;2.53;;
23228;SDS011;11783;50.350;6.576;2023-11-21T12:45:43;8.02;;;2.65;;
23228;SDS011;11783;50.350;6.576;2023-11-21T12:48:09;11.52;;;2.95;;
23228;SDS011;11783;50.350;6.576;2023-11-21T12:50:36;10.57;;;2.97;;
23228;SDS011;11783;50.350;6.576;2023-11-21T12:53:04;10.52;;;2.72;;
23228;SDS011;11783;50.350;6.576;2023-11-21T12:55:34;7.45;;;2.30;;
23228;SDS011;11783;50.350;6.576;2023-11-21T12:58:03;8.48;;;2.40;;
23228;SDS011;11783;50.350;6.576;2023-11-21T13:00:46;8.13;;;2.58;;
23228;SDS011;11783;50.350;6.576;2023-11-21T13:03:13;6.50;;;2.28;;
23228;SDS011;11783;50.350;6.576;2023-11-21T13:05:50;8.98;;;2.60;;
23228;SDS011;11783;50.350;6.576;2023-11-21T13:08:18;8.90;;;2.53;;
23228;SDS011;11783;50.350;6.576;2023-11-21T13:10:46;7.57;;;2.90;;
23228;SDS011;11783;50.350;6.576;2023-11-21T13:13:14;11.63;;;2.90;;
23228;SDS011;11783;50.350;6.576;2023-11-21T13:15:56;8.02;;;2.45;;
23228;SDS011;11783;50.350;6.576;2023-11-21T13:18:26;7.75;;;2.10;;
23228;SDS011;11783;50.350;6.576;2023-11-21T13:20:52;7.32;;;2.22;;
23228;SDS011;11783;50.350;6.576;2023-11-21T13:23:19;8.25;;;2.22;;
23228;SDS011;11783;50.350;6.576;2023-11-21T13:25:45;6.20;;;2.10;;
23228;SDS011;11783;50.350;6.576;2023-11-21T13:28:12;8.98;;;2.50;;
23228;SDS011;11783;50.350;6.576;2023-11-21T13:30:37;7.30;;;2.20;;
23228;SDS011;11783;50.350;6.576;2023-11-21T13:33:05;7.50;;;2.20;;
23228;SDS011;11783;50.350;6.576;2023-11-21T13:35:32;7.60;;;2.25;;
23228;SDS011;11783;50.350;6.576;2023-11-21T13:38:11;8.93;;;2.35;;
23228;SDS011;11783;50.350;6.576;2023-11-21T13:40:38;7.20;;;2.28;;
23228;SDS011;11783;50.350;6.576;2023-11-21T13:45:35;8.60;;;2.22;;
23228;SDS011;11783;50.350;6.576;2023-11-21T13:48:02;8.85;;;2.65;;
23228;SDS011;11783;50.350;6.576;2023-11-21T13:50:28;13.68;;;2.88;;
23228;SDS011;11783;50.350;6.576;2023-11-21T13:52:58;11.00;;;2.70;;
23228;SDS011;11783;50.350;6.576;2023-11-21T13:55:28;9.30;;;3.00;;
23228;SDS011;11783;50.350;6.576;2023-11-21T13:57:53;9.73;;;2.65;;
23228;SDS011;11783;50.350;6.576;2023-11-21T14:00:19;8.82;;;3.08;;
23228;SDS011;11783;50.350;6.576;2023-11-21T14:03:03;7.10;;;2.83;;
23228;SDS011;11783;50.350;6.576;2023-11-21T14:05:33;8.68;;;2.90;;
23228;SDS011;11783;50.350;6.576;2023-11-21T14:07:59;7.85;;;2.47;;
23228;SDS011;11783;50.350;6.576;2023-11-21T14:10:29;6.10;;;2.03;;
23228;SDS011;11783;50.350;6.576;2023-11-21T14:13:05;9.57;;;2.42;;
23228;SDS011;11783;50.350;6.576;2023-11-21T14:15:31;6.22;;;2.70;;
23228;SDS011;11783;50.350;6.576;2023-11-21T14:17:58;10.18;;;2.83;;
23228;SDS011;11783;50.350;6.576;2023-11-21T14:20:25;10.02;;;2.60;;
23228;SDS011;11783;50.350;6.576;2023-11-21T14:22:50;7.30;;;2.75;;
23228;SDS011;11783;50.350;6.576;2023-11-21T14:25:16;8.73;;;3.10;;
23228;SDS011;11783;50.350;6.576;2023-11-21T14:27:42;10.57;;;2.88;;
23228;SDS011;11783;50.350;6.576;2023-11-21T14:30:08;10.85;;;2.95;;
23228;SDS011;11783;50.350;6.576;2023-11-21T14:32:37;9.80;;;3.28;;
23228;SDS011;11783;50.350;6.576;2023-11-21T14:35:03;7.45;;;3.25;;
23228;SDS011;11783;50.350;6.576;2023-11-21T14:37:28;10.88;;;4.18;;
23228;SDS011;11783;50.350;6.576;2023-11-21T14:39:54;12.55;;;3.80;;
23228;SDS011;11783;50.350;6.576;2023-11-21T14:42:20;12.43;;;3.72;;
23228;SDS011;11783;50.350;6.576;2023-11-21T14:44:50;11.40;;;4.13;;
23228;SDS011;11783;50.350;6.576;2023-11-21T14:47:16;11.05;;;4.13;;
23228;SDS011;11783;50.350;6.576;2023-11-21T14:49:44;14.35;;;4.10;;
23228;SDS011;11783;50.350;6.576;2023-11-21T14:52:24;12.07;;;4.63;;
23228;SDS011;11783;50.350;6.576;2023-11-21T14:54:59;15.15;;;5.53;;
23228;SDS011;11783;50.350;6.576;2023-11-21T14:57:45;14.05;;;4.28;;
23228;SDS011;11783;50.350;6.576;2023-11-21T15:00:15;11.70;;;4.60;;